createdAt,value
2019-03-16T00:02:23.079Z,0.70
2019-03-16T00:04:51.124Z,0.50
2019-03-16T00:07:32.229Z,0.60
2019-03-16T00:09:47.195Z,0.47
2019-03-16T00:12:15.994Z,0.60
2019-03-16T00:14:44.795Z,0.50
2019-03-16T00:17:23.006Z,0.60
2019-03-16T00:19:41.608Z,0.50
2019-03-16T00:22:09.651Z,0.60
2019-03-16T00:24:37.688Z,0.57
2019-03-16T00:27:05.711Z,0.70
2019-03-16T00:29:33.742Z,0.40
2019-03-16T00:32:12.963Z,0.60
2019-03-16T00:34:30.587Z,0.80
2019-03-16T00:36:58.616Z,0.50
2019-03-16T00:39:26.660Z,0.50
2019-03-16T00:41:54.696Z,0.50
2019-03-16T00:44:22.740Z,0.40
2019-03-16T00:46:51.540Z,0.50
2019-03-16T00:49:20.342Z,0.50
2019-03-16T00:51:48.387Z,0.55
2019-03-16T00:54:16.398Z,0.50
2019-03-16T00:56:44.428Z,0.40
2019-03-16T00:59:13.219Z,0.40
2019-03-16T01:01:42.034Z,0.40
2019-03-16T01:04:10.073Z,0.60
2019-03-16T01:06:38.872Z,0.40
2019-03-16T01:09:06.918Z,0.37
2019-03-16T01:11:34.950Z,0.40
2019-03-16T01:14:02.985Z,0.70
2019-03-16T01:16:31.042Z,0.55
2019-03-16T01:18:59.835Z,0.50
2019-03-16T01:21:28.644Z,0.50
2019-03-16T01:23:56.680Z,0.40
2019-03-16T01:26:25.497Z,0.50
2019-03-16T01:28:53.545Z,0.50
2019-03-16T01:31:22.356Z,0.50
2019-03-16T01:33:51.124Z,0.40
2019-03-16T01:36:19.943Z,0.50
2019-03-16T01:38:47.980Z,0.60
2019-03-16T01:41:16.801Z,0.60
2019-03-16T01:43:44.806Z,0.60
2019-03-16T01:46:12.840Z,0.47
2019-03-16T01:48:40.885Z,0.52
2019-03-16T01:51:08.928Z,0.82
2019-03-16T01:53:36.962Z,0.40
2019-03-16T01:56:05.012Z,0.50
2019-03-16T01:58:33.034Z,0.50
2019-03-16T02:01:01.074Z,0.50
2019-03-16T02:03:29.117Z,0.50
2019-03-16T02:05:57.931Z,0.50
2019-03-16T02:08:25.972Z,0.60
2019-03-16T02:10:54.011Z,0.50
2019-03-16T02:13:22.811Z,0.50
2019-03-16T02:15:50.827Z,0.70
2019-03-16T02:18:18.856Z,0.60
2019-03-16T02:20:47.667Z,0.60
2019-03-16T02:23:15.700Z,0.40
2019-03-16T02:25:44.510Z,0.52
2019-03-16T02:28:12.539Z,0.50
2019-03-16T02:30:40.583Z,0.40
2019-03-16T02:33:13.311Z,0.47
2019-03-16T02:35:36.666Z,0.45
2019-03-16T02:38:05.474Z,0.40
2019-03-16T02:40:33.525Z,0.50
2019-03-16T02:43:02.335Z,0.50
2019-03-16T02:45:30.376Z,0.50
2019-03-16T02:47:59.299Z,0.50
2019-03-16T02:50:27.963Z,0.43
2019-03-16T02:52:56.771Z,0.50
2019-03-16T02:55:24.817Z,0.95
2019-03-16T02:57:53.629Z,2.25
2019-03-16T03:00:21.677Z,0.70
2019-03-16T03:02:50.474Z,0.77
2019-03-16T03:05:18.496Z,0.80
2019-03-16T03:07:46.532Z,0.68
2019-03-16T03:10:14.602Z,0.60
2019-03-16T03:12:43.370Z,0.40
2019-03-16T03:15:12.177Z,1.30
2019-03-16T03:17:40.216Z,0.60
2019-03-16T03:20:08.256Z,0.80
2019-03-16T03:22:36.262Z,0.97
2019-03-16T03:25:05.073Z,0.80
2019-03-16T03:27:33.100Z,0.52
2019-03-16T03:30:01.986Z,0.40
2019-03-16T03:32:30.712Z,0.50
2019-03-16T03:34:58.760Z,0.60
2019-03-16T03:37:27.559Z,1.00
2019-03-16T03:39:55.591Z,0.65
2019-03-16T03:42:23.642Z,0.50
2019-03-16T03:44:51.639Z,0.70
2019-03-16T03:47:19.690Z,0.60
2019-03-16T03:49:47.720Z,0.50
2019-03-16T03:52:15.759Z,0.60
2019-03-16T03:54:44.575Z,0.70
2019-03-16T03:57:13.361Z,0.80
2019-03-16T03:59:41.403Z,0.80
2019-03-16T04:02:09.404Z,0.70
2019-03-16T04:04:37.445Z,0.70
2019-03-16T04:07:06.248Z,0.60
2019-03-16T04:09:34.295Z,0.60
2019-03-16T04:12:02.335Z,0.60
2019-03-16T04:14:30.361Z,0.70
2019-03-16T04:16:58.397Z,0.73
2019-03-16T04:19:26.800Z,0.60
2019-03-16T04:21:55.611Z,0.60
2019-03-16T04:24:23.641Z,0.70
2019-03-16T04:26:52.471Z,0.73
2019-03-16T04:29:20.475Z,0.70
2019-03-16T04:31:48.495Z,0.80
2019-03-16T04:34:28.539Z,0.50
2019-03-16T04:36:44.551Z,0.60
2019-03-16T04:39:12.591Z,0.68
2019-03-16T04:41:41.399Z,0.90
2019-03-16T04:44:09.424Z,0.82
2019-03-16T04:46:37.463Z,0.90
2019-03-16T04:49:05.483Z,0.70
2019-03-16T04:51:34.291Z,1.02
2019-03-16T04:54:02.336Z,0.60
2019-03-16T04:56:31.145Z,0.68
2019-03-16T04:58:59.929Z,0.60
2019-03-16T05:01:27.980Z,0.60
2019-03-16T05:03:56.017Z,0.60
2019-03-16T05:06:24.033Z,0.60
2019-03-16T05:08:52.835Z,0.50
2019-03-16T05:11:20.880Z,0.50
2019-03-16T05:13:49.680Z,0.43
2019-03-16T05:16:18.488Z,0.47
2019-03-16T05:18:46.519Z,0.35
2019-03-16T05:21:15.326Z,0.30
2019-03-16T05:23:44.120Z,0.40
2019-03-16T05:26:12.173Z,0.40
2019-03-16T05:28:40.967Z,0.40
2019-03-16T05:31:09.773Z,0.40
2019-03-16T05:33:37.804Z,0.40
2019-03-16T05:36:05.839Z,0.40
2019-03-16T05:38:33.984Z,0.35
2019-03-16T05:41:02.015Z,0.30
2019-03-16T05:43:30.048Z,0.40
2019-03-16T05:45:58.101Z,0.40
2019-03-16T05:48:26.135Z,0.30
2019-03-16T05:50:57.271Z,0.50
2019-03-16T05:53:22.224Z,0.37
2019-03-16T05:55:50.259Z,0.40
2019-03-16T05:58:19.060Z,0.30
2019-03-16T06:00:47.084Z,0.40
2019-03-16T06:03:15.116Z,0.30
2019-03-16T06:05:43.159Z,0.45
2019-03-16T06:08:11.172Z,0.33
2019-03-16T06:10:39.241Z,0.47
2019-03-16T06:13:07.288Z,0.37
2019-03-16T06:15:35.348Z,0.40
2019-03-16T06:18:03.361Z,0.40
2019-03-16T06:20:31.395Z,0.50
2019-03-16T06:22:59.407Z,0.50
2019-03-16T06:25:27.441Z,0.50
2019-03-16T06:27:56.244Z,0.47
2019-03-16T06:30:24.303Z,0.40
2019-03-16T06:32:53.116Z,0.40
2019-03-16T06:35:24.924Z,0.37
2019-03-16T06:37:49.192Z,0.45
2019-03-16T06:40:17.226Z,0.50
2019-03-16T06:42:45.255Z,0.40
2019-03-16T06:45:13.283Z,0.57
2019-03-16T06:47:41.877Z,0.40
2019-03-16T06:50:11.318Z,0.40
2019-03-16T06:52:39.359Z,0.60
2019-03-16T06:55:07.367Z,0.50
2019-03-16T06:57:36.171Z,0.47
2019-03-16T07:00:05.884Z,0.43
2019-03-16T07:02:34.024Z,0.68
2019-03-16T07:05:02.067Z,0.70
2019-03-16T07:07:30.104Z,0.60
2019-03-16T07:09:58.135Z,0.60
2019-03-16T07:12:26.171Z,1.20
2019-03-16T07:14:54.200Z,1.00
2019-03-16T07:17:23.005Z,3.65
2019-03-16T07:19:51.036Z,0.77
2019-03-16T07:22:19.080Z,0.93
2019-03-16T07:24:47.080Z,0.80
2019-03-16T07:27:25.565Z,0.70
2019-03-16T07:29:43.899Z,0.77
2019-03-16T07:32:11.948Z,0.80
2019-03-16T07:34:40.059Z,0.90
2019-03-16T07:37:07.999Z,0.97
2019-03-16T07:39:36.036Z,0.70
2019-03-16T07:42:04.844Z,0.90
2019-03-16T07:44:32.885Z,0.95
2019-03-16T07:47:01.681Z,0.80
2019-03-16T07:49:30.484Z,0.70
2019-03-16T07:51:59.275Z,0.90
2019-03-16T07:54:27.336Z,0.70
2019-03-16T07:56:57.554Z,0.80
2019-03-16T07:59:26.042Z,0.77
2019-03-16T08:01:54.852Z,0.90
2019-03-16T08:04:22.898Z,0.70
2019-03-16T08:06:51.688Z,0.70
2019-03-16T08:09:19.900Z,0.90
2019-03-16T08:11:47.797Z,0.95
2019-03-16T08:14:16.611Z,1.37
2019-03-16T08:16:44.652Z,1.00
2019-03-16T08:19:12.676Z,1.20
2019-03-16T08:21:40.723Z,1.00
2019-03-16T08:24:08.765Z,0.90
2019-03-16T08:26:37.585Z,1.00
2019-03-16T08:29:05.621Z,0.80
2019-03-16T08:31:33.680Z,0.90
2019-03-16T08:34:01.755Z,0.90
2019-03-16T08:36:29.837Z,0.98
2019-03-16T08:38:58.670Z,1.08
2019-03-16T08:41:26.732Z,1.25
2019-03-16T08:43:54.784Z,1.33
2019-03-16T08:46:22.848Z,0.98
2019-03-16T08:48:51.678Z,1.00
2019-03-16T08:51:19.739Z,0.90
2019-03-16T08:53:47.800Z,0.80
2019-03-16T08:56:15.842Z,1.10
2019-03-16T08:58:45.137Z,0.98
2019-03-16T09:01:13.177Z,0.80
2019-03-16T09:03:43.891Z,0.80
2019-03-16T09:06:10.079Z,0.93
2019-03-16T09:08:38.112Z,1.10
2019-03-16T09:11:06.170Z,1.10
2019-03-16T09:13:34.207Z,1.00
2019-03-16T09:16:02.269Z,0.90
2019-03-16T09:18:30.326Z,0.98
2019-03-16T09:20:59.133Z,1.00
2019-03-16T09:23:27.205Z,1.10
2019-03-16T09:25:55.243Z,1.00
2019-03-16T09:28:25.295Z,0.73
2019-03-16T09:30:56.306Z,1.00
2019-03-16T09:33:21.535Z,0.90
2019-03-16T09:35:50.228Z,0.90
2019-03-16T09:38:18.371Z,0.90
2019-03-16T09:40:47.172Z,0.90
2019-03-16T09:43:15.215Z,0.90
2019-03-16T09:45:43.237Z,0.70
2019-03-16T09:48:11.283Z,0.90
2019-03-16T09:50:39.328Z,0.80
2019-03-16T09:53:08.148Z,0.75
2019-03-16T09:55:36.939Z,0.60
2019-03-16T09:58:04.997Z,0.73
2019-03-16T10:00:33.777Z,1.30
2019-03-16T10:03:01.840Z,1.30
2019-03-16T10:05:30.639Z,0.90
2019-03-16T10:07:58.687Z,1.37
2019-03-16T10:10:27.484Z,0.80
2019-03-16T10:12:55.504Z,1.00
2019-03-16T10:15:23.541Z,0.88
2019-03-16T10:17:52.332Z,0.90
2019-03-16T10:20:20.392Z,0.95
2019-03-16T10:22:48.438Z,0.88
2019-03-16T10:25:16.476Z,0.80
2019-03-16T10:27:44.530Z,1.35
2019-03-16T10:30:13.365Z,0.80
2019-03-16T10:32:41.409Z,0.90
2019-03-16T10:35:09.452Z,0.70
2019-03-16T10:37:37.500Z,0.70
2019-03-16T10:40:05.556Z,0.80
2019-03-16T10:42:34.368Z,0.88
2019-03-16T10:45:03.159Z,0.70
2019-03-16T10:47:31.212Z,0.90
2019-03-16T10:50:00.032Z,0.70
2019-03-16T10:52:28.088Z,0.98
2019-03-16T10:54:56.111Z,0.90
2019-03-16T10:57:24.182Z,1.00
2019-03-16T10:59:52.212Z,0.70
2019-03-16T11:02:20.268Z,0.75
2019-03-16T11:04:48.311Z,0.60
2019-03-16T11:07:17.120Z,0.80
2019-03-16T11:09:45.161Z,0.73
2019-03-16T11:12:13.974Z,0.60
2019-03-16T11:14:42.016Z,0.70
2019-03-16T11:17:10.068Z,0.70
2019-03-16T11:19:38.107Z,0.80
2019-03-16T11:22:06.132Z,0.80
2019-03-16T11:24:34.961Z,0.60
2019-03-16T11:27:02.999Z,0.60
2019-03-16T11:29:31.803Z,0.73
2019-03-16T11:31:59.849Z,1.12
2019-03-16T11:34:28.659Z,1.40
2019-03-16T11:36:56.702Z,3.60
2019-03-16T11:39:24.722Z,3.57
2019-03-16T11:41:52.765Z,1.67
2019-03-16T11:44:21.556Z,2.30
2019-03-16T11:46:49.620Z,2.00
2019-03-16T11:49:17.654Z,2.20
2019-03-16T11:51:45.685Z,2.25
2019-03-16T11:54:13.727Z,3.50
2019-03-16T11:56:42.520Z,1.42
2019-03-16T11:59:21.190Z,0.93
2019-03-16T12:01:44.690Z,0.80
2019-03-16T12:04:12.721Z,1.77
2019-03-16T12:06:40.752Z,3.37
2019-03-16T12:09:09.539Z,3.50
2019-03-16T12:11:37.589Z,3.25
2019-03-16T12:14:06.383Z,2.47
2019-03-16T12:16:34.419Z,2.45
2019-03-16T12:19:02.459Z,2.60
2019-03-16T12:21:30.502Z,1.80
2019-03-16T12:23:58.551Z,1.87
2019-03-16T12:26:27.332Z,2.50
2019-03-16T12:28:56.156Z,3.00
2019-03-16T12:31:24.186Z,4.15
2019-03-16T12:33:53.008Z,5.80
2019-03-16T12:36:21.028Z,1.65
2019-03-16T12:38:49.068Z,0.88
2019-03-16T12:41:17.112Z,0.90
2019-03-16T12:43:45.154Z,1.02
2019-03-16T12:46:13.962Z,2.55
2019-03-16T12:48:42.751Z,1.00
2019-03-16T12:51:10.787Z,1.70
2019-03-16T12:53:39.646Z,0.90
2019-03-16T12:56:06.882Z,1.60
2019-03-16T12:58:34.919Z,1.85
2019-03-16T13:01:02.974Z,1.23
2019-03-16T13:03:31.003Z,3.08
2019-03-16T13:05:59.043Z,1.50
2019-03-16T13:08:27.082Z,2.10
2019-03-16T13:10:55.883Z,0.70
2019-03-16T13:13:24.705Z,0.80
2019-03-16T13:15:52.730Z,1.00
2019-03-16T13:18:21.552Z,2.25
2019-03-16T13:20:49.586Z,1.10
2019-03-16T13:23:17.662Z,1.37
2019-03-16T13:25:45.640Z,1.80
2019-03-16T13:28:13.664Z,1.30
2019-03-16T13:30:41.702Z,1.55
2019-03-16T13:33:10.483Z,1.00
2019-03-16T13:35:38.527Z,0.90
2019-03-16T13:38:07.359Z,1.77
2019-03-16T13:40:35.367Z,1.30
2019-03-16T13:43:03.407Z,1.10
2019-03-16T13:45:31.443Z,1.10
2019-03-16T13:47:59.500Z,1.10
2019-03-16T13:50:28.303Z,0.90
2019-03-16T13:52:57.091Z,0.90
2019-03-16T13:55:25.891Z,1.10
2019-03-16T13:57:53.937Z,1.12
2019-03-16T14:00:23.352Z,1.00
2019-03-16T14:02:51.314Z,1.10
2019-03-16T14:05:19.358Z,0.80
2019-03-16T14:07:48.169Z,0.93
2019-03-16T14:10:17.103Z,0.82
2019-03-16T14:12:45.139Z,0.85
2019-03-16T14:15:13.183Z,1.02
2019-03-16T14:29:34.279Z,1.00
2019-03-16T14:32:02.319Z,1.25
2019-03-16T14:34:30.462Z,1.10
2019-03-16T14:36:58.491Z,0.95
2019-03-16T14:40:20.495Z,1.00
2019-03-16T14:42:48.476Z,0.95
2019-03-16T14:45:17.296Z,1.40
2019-03-16T14:47:45.326Z,0.95
2019-03-16T14:50:18.246Z,1.00
2019-03-16T14:53:44.372Z,1.77
2019-03-16T14:56:12.407Z,1.20
2019-03-16T14:58:40.465Z,2.10
2019-03-16T15:01:08.596Z,2.10
2019-03-16T15:03:36.659Z,2.40
2019-03-16T15:06:04.701Z,1.40
2019-03-16T15:08:32.807Z,1.03
2019-03-16T15:11:00.847Z,0.90
2019-03-16T15:13:28.879Z,1.10
2019-03-16T15:15:56.918Z,2.40
2019-03-16T15:18:24.961Z,1.10
2019-03-16T15:23:53.659Z,0.90
2019-03-16T15:26:21.759Z,1.00
2019-03-16T15:28:54.881Z,0.85
2019-03-16T15:31:17.904Z,0.90
2019-03-16T15:33:45.961Z,1.20
2019-03-16T15:36:14.735Z,1.60
2019-03-16T15:38:43.639Z,0.95
2019-03-16T15:41:11.725Z,1.40
2019-03-16T15:43:39.787Z,1.80
2019-03-16T15:46:07.837Z,1.70
2019-03-16T15:48:36.655Z,1.70
2019-03-16T15:51:04.702Z,1.60
2019-03-16T15:53:32.714Z,1.40
2019-03-16T15:56:00.772Z,1.10
2019-03-16T15:58:28.870Z,1.00
2019-03-16T16:01:03.467Z,1.25
2019-03-16T16:03:24.967Z,1.20
2019-03-16T16:05:53.772Z,0.73
2019-03-16T16:08:21.823Z,0.90
2019-03-16T16:11:00.522Z,0.90
2019-03-16T16:13:18.769Z,0.70
2019-03-16T16:15:47.583Z,0.50
2019-03-16T16:18:15.631Z,0.60
2019-03-16T16:20:43.867Z,0.60
2019-03-16T16:23:11.942Z,0.60
2019-03-16T16:25:40.084Z,0.50
2019-03-16T16:28:08.100Z,1.30
2019-03-16T16:30:36.149Z,0.73
2019-03-16T16:33:04.174Z,1.50
2019-03-16T16:35:33.018Z,0.70
2019-03-16T16:38:01.139Z,0.80
2019-03-16T16:40:29.202Z,0.60
2019-03-16T16:42:58.148Z,0.88
2019-03-16T16:45:26.191Z,0.95
2019-03-16T16:47:54.325Z,0.80
2019-03-16T16:50:22.378Z,0.70
2019-03-16T16:52:51.183Z,0.70
2019-03-16T16:55:19.230Z,0.70
2019-03-16T16:57:48.045Z,0.80
2019-03-16T17:00:16.839Z,0.88
2019-03-16T17:02:44.913Z,0.90
2019-03-16T17:05:12.991Z,0.90
2019-03-16T17:07:41.059Z,1.00
2019-03-16T17:10:10.915Z,1.10
2019-03-16T17:12:40.462Z,0.93
2019-03-16T17:15:08.539Z,1.40
2019-03-16T17:17:36.609Z,1.02
2019-03-16T17:20:04.672Z,1.12
2019-03-16T17:22:32.705Z,0.90
2019-03-16T17:25:00.815Z,1.17
2019-03-16T17:27:28.855Z,1.62
2019-03-16T17:29:56.875Z,1.00
2019-03-16T17:32:24.918Z,1.35
2019-03-16T17:34:53.703Z,1.23
2019-03-16T17:37:21.754Z,1.35
2019-03-16T17:39:50.644Z,1.20
2019-03-16T17:42:19.446Z,0.90
2019-03-16T17:44:50.903Z,1.27
2019-03-16T17:47:16.388Z,1.15
2019-03-16T17:49:45.207Z,1.10
2019-03-16T17:52:13.288Z,1.00
2019-03-16T17:54:41.363Z,1.17
2019-03-16T17:57:09.391Z,1.37
2019-03-16T17:59:38.223Z,1.20
2019-03-16T18:02:07.039Z,1.37
2019-03-16T18:04:35.162Z,1.00
2019-03-16T18:07:03.201Z,0.90
2019-03-16T18:09:31.315Z,0.90
2019-03-16T18:11:59.361Z,1.00
2019-03-16T18:14:28.273Z,1.20
2019-03-16T18:16:56.310Z,1.27
2019-03-16T18:19:25.135Z,1.05
2019-03-16T18:21:53.191Z,1.10
2019-03-16T18:24:21.312Z,1.08
2019-03-16T18:26:50.048Z,1.30
2019-03-16T18:29:18.835Z,1.00
2019-03-16T18:31:46.891Z,1.20
2019-03-16T18:34:16.511Z,1.23
2019-03-16T18:36:44.579Z,1.30
2019-03-16T18:39:12.669Z,1.27
2019-03-16T18:41:40.728Z,1.33
2019-03-16T18:44:08.771Z,1.60
2019-03-16T18:46:37.587Z,1.90
2019-03-16T18:49:05.631Z,1.80
2019-03-16T18:51:34.451Z,1.45
2019-03-16T18:54:02.495Z,1.42
2019-03-16T18:56:31.319Z,1.30
2019-03-16T18:58:59.357Z,1.02
2019-03-16T19:01:28.176Z,1.10
2019-03-16T19:03:56.232Z,1.00
2019-03-16T19:06:24.283Z,1.00
2019-03-16T19:08:53.192Z,1.12
2019-03-16T19:11:21.268Z,1.25
2019-03-16T19:13:49.303Z,0.93
2019-03-16T19:16:18.111Z,0.85
2019-03-16T19:18:46.142Z,1.17
2019-03-16T19:21:14.209Z,1.10
2019-03-16T19:23:42.329Z,1.20
2019-03-16T19:26:10.375Z,1.50
2019-03-16T19:28:38.395Z,1.83
2019-03-16T19:31:06.640Z,1.98
2019-03-16T19:33:34.687Z,2.00
2019-03-16T19:36:03.495Z,2.40
2019-03-16T19:38:31.589Z,2.62
2019-03-16T19:40:59.634Z,2.65
2019-03-16T19:43:27.672Z,2.60
2019-03-16T19:45:55.704Z,2.50
2019-03-16T19:48:23.750Z,2.58
2019-03-16T19:50:51.828Z,2.53
2019-03-16T19:53:19.863Z,2.40
2019-03-16T19:55:48.699Z,2.17
2019-03-16T19:58:16.753Z,2.22
2019-03-16T20:00:44.802Z,1.95
2019-03-16T20:03:13.268Z,2.23
2019-03-16T20:05:41.368Z,2.43
2019-03-16T20:08:09.407Z,1.75
2019-03-16T20:10:38.363Z,1.70
2019-03-16T20:13:06.276Z,1.60
2019-03-16T20:15:35.088Z,1.60
2019-03-16T20:18:03.133Z,1.37
2019-03-16T20:20:32.044Z,1.40
2019-03-16T20:23:01.656Z,1.23
2019-03-16T20:25:29.699Z,1.30
2019-03-16T20:27:58.514Z,1.48
2019-03-16T20:30:27.240Z,1.10
2019-03-16T20:33:03.881Z,1.35
2019-03-16T20:35:23.516Z,1.40
2019-03-16T20:37:52.323Z,1.20
2019-03-16T20:40:20.372Z,1.17
2019-03-16T20:42:49.185Z,1.23
2019-03-16T20:45:17.459Z,1.10
2019-03-16T20:47:46.035Z,1.20
2019-03-16T20:50:14.922Z,1.30
2019-03-16T20:52:42.979Z,1.10
2019-03-16T20:55:11.784Z,1.42
2019-03-16T20:57:39.878Z,1.75
2019-03-16T21:00:12.291Z,3.30
2019-03-16T21:02:40.345Z,2.40
2019-03-16T21:05:08.385Z,2.20
2019-03-16T21:07:37.168Z,2.10
2019-03-16T21:10:05.208Z,1.90
2019-03-16T21:12:33.219Z,1.77
2019-03-16T21:15:01.257Z,1.98
2019-03-16T21:17:30.079Z,2.03
2019-03-16T21:19:58.106Z,2.20
2019-03-16T21:22:34.927Z,2.00
2019-03-16T21:24:54.232Z,2.00
2019-03-16T21:27:22.439Z,2.10
2019-03-16T21:29:50.519Z,2.20
2019-03-16T21:32:18.560Z,2.20
2019-03-16T21:34:47.380Z,2.37
2019-03-16T21:37:15.434Z,2.33
2019-03-16T21:39:43.467Z,2.30
2019-03-16T21:42:11.496Z,2.70
2019-03-16T21:44:39.555Z,2.80
2019-03-16T21:47:07.627Z,2.90
2019-03-16T21:49:36.837Z,3.33
2019-03-16T21:52:04.887Z,3.67
2019-03-16T21:54:32.919Z,4.28
2019-03-16T21:57:01.006Z,4.57
2019-03-16T21:59:29.098Z,4.28
2019-03-16T22:01:57.158Z,4.18
2019-03-16T22:04:25.168Z,4.03
2019-03-16T22:06:53.223Z,3.92
2019-03-16T22:09:21.263Z,4.03
2019-03-16T22:11:49.355Z,3.90
2019-03-16T22:14:17.419Z,3.78
2019-03-16T22:16:45.476Z,3.12
2019-03-16T22:19:14.285Z,2.97
2019-03-16T22:21:42.324Z,2.35
2019-03-16T22:24:11.956Z,2.23
2019-03-16T22:26:40.008Z,2.50
2019-03-16T22:29:08.108Z,2.20
2019-03-16T22:31:36.223Z,2.30
2019-03-16T22:34:04.340Z,2.53
2019-03-16T22:36:33.110Z,2.43
2019-03-16T22:39:02.014Z,2.42
2019-03-16T22:41:30.798Z,2.53
2019-03-16T22:43:58.878Z,2.47
2019-03-16T22:46:27.643Z,2.27
2019-03-16T22:48:56.463Z,2.35
2019-03-16T22:51:24.488Z,2.05
2019-03-16T22:53:53.411Z,1.90
2019-03-16T22:56:22.179Z,2.30
2019-03-16T22:58:51.098Z,2.15
2019-03-16T23:01:19.270Z,1.83
2019-03-16T23:03:47.312Z,1.83
2019-03-16T23:06:16.116Z,1.85
2019-03-16T23:08:44.159Z,2.00
2019-03-16T23:11:12.962Z,1.95
2019-03-16T23:13:41.863Z,1.73
2019-03-16T23:16:09.947Z,1.73
2019-03-16T23:18:38.816Z,2.03
2019-03-16T23:21:06.895Z,1.98
2019-03-16T23:23:34.946Z,2.40
2019-03-16T23:26:03.742Z,2.00
2019-03-16T23:28:31.867Z,1.90
2019-03-16T23:30:59.824Z,1.67
2019-03-16T23:33:27.962Z,1.70
2019-03-16T23:35:56.035Z,1.92
2019-03-16T23:38:24.820Z,1.92
2019-03-16T23:40:52.859Z,1.83
2019-03-16T23:43:20.963Z,1.80
2019-03-16T23:45:49.000Z,1.80
2019-03-16T23:48:17.103Z,1.80
2019-03-16T23:50:45.154Z,1.80
2019-03-16T23:53:13.197Z,1.50
2019-03-16T23:55:41.231Z,1.40
2019-03-16T23:58:09.257Z,1.43
